sensor_id;sensor_type;location;lat;lon;timestamp;temperature;humidity
1996;DHT22;38556;47.068;15.408;2022-11-18T00:00:12;7.60;99.90
1996;DHT22;38556;47.068;15.408;2022-11-18T00:02:39;7.50;99.90
1996;DHT22;38556;47.068;15.408;2022-11-18T00:05:08;7.40;99.90
1996;DHT22;38556;47.068;15.408;2022-11-18T00:07:35;7.40;99.90
1996;DHT22;38556;47.068;15.408;2022-11-18T00:10:03;7.40;99.90
1996;DHT22;38556;47.068;15.408;2022-11-18T00:12:30;7.40;99.90
1996;DHT22;38556;47.068;15.408;2022-11-18T00:15:15;7.40;99.90
1996;DHT22;38556;47.068;15.408;2022-11-18T00:17:42;7.40;99.90
1996;DHT22;38556;47.068;15.408;2022-11-18T00:20:11;7.50;99.90
1996;DHT22;38556;47.068;15.408;2022-11-18T00:22:38;7.50;99.90
1996;DHT22;38556;47.068;15.408;2022-11-18T00:25:06;7.60;99.90
1996;DHT22;38556;47.068;15.408;2022-11-18T00:27:33;7.70;99.90
1996;DHT22;38556;47.068;15.408;2022-11-18T00:30:01;7.70;99.90
1996;DHT22;38556;47.068;15.408;2022-11-18T00:32:28;7.70;99.90
1996;DHT22;38556;47.068;15.408;2022-11-18T00:34:55;7.80;99.90
1996;DHT22;38556;47.068;15.408;2022-11-18T00:37:24;7.70;99.90
1996;DHT22;38556;47.068;15.408;2022-11-18T00:39:51;7.80;99.90
1996;DHT22;38556;47.068;15.408;2022-11-18T00:42:18;7.80;99.90
1996;DHT22;38556;47.068;15.408;2022-11-18T00:45:03;7.80;99.90
1996;DHT22;38556;47.068;15.408;2022-11-18T00:47:30;7.90;99.90
1996;DHT22;38556;47.068;15.408;2022-11-18T00:49:58;7.90;99.90
1996;DHT22;38556;47.068;15.408;2022-11-18T00:52:26;7.90;99.90
1996;DHT22;38556;47.068;15.408;2022-11-18T00:54:54;7.80;99.90
1996;DHT22;38556;47.068;15.408;2022-11-18T00:57:21;7.80;99.90
1996;DHT22;38556;47.068;15.408;2022-11-18T00:59:48;7.80;99.90
1996;DHT22;38556;47.068;15.408;2022-11-18T01:02:15;7.80;99.90
1996;DHT22;38556;47.068;15.408;2022-11-18T01:04:42;7.90;99.90
1996;DHT22;38556;47.068;15.408;2022-11-18T01:07:10;7.90;99.90
1996;DHT22;38556;47.068;15.408;2022-11-18T01:09:39;7.90;99.90
1996;DHT22;38556;47.068;15.408;2022-11-18T01:12:06;8.00;99.90
1996;DHT22;38556;47.068;15.408;2022-11-18T01:14:52;7.90;99.90
1996;DHT22;38556;47.068;15.408;2022-11-18T01:17:19;8.00;99.90
1996;DHT22;38556;47.068;15.408;2022-11-18T01:19:46;8.00;99.90
1996;DHT22;38556;47.068;15.408;2022-11-18T01:22:14;8.00;99.90
1996;DHT22;38556;47.068;15.408;2022-11-18T01:24:42;8.00;99.90
1996;DHT22;38556;47.068;15.408;2022-11-18T01:27:09;8.10;99.90
1996;DHT22;38556;47.068;15.408;2022-11-18T01:29:37;8.10;99.90
1996;DHT22;38556;47.068;15.408;2022-11-18T01:32:04;8.10;99.90
1996;DHT22;38556;47.068;15.408;2022-11-18T01:34:31;8.10;99.90
1996;DHT22;38556;47.068;15.408;2022-11-18T01:36:59;8.10;99.90
1996;DHT22;38556;47.068;15.408;2022-11-18T01:39:26;8.10;99.90
1996;DHT22;38556;47.068;15.408;2022-11-18T01:41:55;8.10;99.90
1996;DHT22;38556;47.068;15.408;2022-11-18T01:44:55;8.10;99.90
1996;DHT22;38556;47.068;15.408;2022-11-18T01:47:23;8.10;99.90
1996;DHT22;38556;47.068;15.408;2022-11-18T01:49:52;8.20;99.90
1996;DHT22;38556;47.068;15.408;2022-11-18T01:52:19;8.20;99.90
1996;DHT22;38556;47.068;15.408;2022-11-18T01:54:50;8.20;99.90
1996;DHT22;38556;47.068;15.408;2022-11-18T01:57:23;8.20;99.90
1996;DHT22;38556;47.068;15.408;2022-11-18T01:59:54;8.10;99.90
1996;DHT22;38556;47.068;15.408;2022-11-18T02:02:23;7.90;99.90
1996;DHT22;38556;47.068;15.408;2022-11-18T02:04:51;7.80;99.90
1996;DHT22;38556;47.068;15.408;2022-11-18T02:07:21;7.40;99.90
1996;DHT22;38556;47.068;15.408;2022-11-18T02:09:50;7.40;99.90
1996;DHT22;38556;47.068;15.408;2022-11-18T02:12:18;7.50;99.90
1996;DHT22;38556;47.068;15.408;2022-11-18T02:14:47;7.50;99.90
1996;DHT22;38556;47.068;15.408;2022-11-18T02:17:24;7.70;99.90
1996;DHT22;38556;47.068;15.408;2022-11-18T02:23:16;7.80;99.90
1996;DHT22;38556;47.068;15.408;2022-11-18T02:26:03;7.80;99.90
1996;DHT22;38556;47.068;15.408;2022-11-18T02:31:32;7.90;99.90
1996;DHT22;38556;47.068;15.408;2022-11-18T02:34:06;7.80;99.90
1996;DHT22;38556;47.068;15.408;2022-11-18T02:39:11;7.80;99.90
1996;DHT22;38556;47.068;15.408;2022-11-18T02:41:40;7.90;99.90
1996;DHT22;38556;47.068;15.408;2022-11-18T02:44:12;7.90;99.90
1996;DHT22;38556;47.068;15.408;2022-11-18T02:46:44;8.00;99.90
1996;DHT22;38556;47.068;15.408;2022-11-18T02:49:19;7.50;99.90
1996;DHT22;38556;47.068;15.408;2022-11-18T02:51:48;7.30;99.90
1996;DHT22;38556;47.068;15.408;2022-11-18T02:54:17;7.30;99.90
1996;DHT22;38556;47.068;15.408;2022-11-18T02:56:57;7.10;99.90
1996;DHT22;38556;47.068;15.408;2022-11-18T02:59:26;7.10;99.90
1996;DHT22;38556;47.068;15.408;2022-11-18T03:01:56;7.20;99.90
1996;DHT22;38556;47.068;15.408;2022-11-18T03:04:24;7.30;99.90
1996;DHT22;38556;47.068;15.408;2022-11-18T03:06:57;7.10;99.90
1996;DHT22;38556;47.068;15.408;2022-11-18T03:09:31;7.30;99.90
1996;DHT22;38556;47.068;15.408;2022-11-18T03:12:07;7.40;99.90
1996;DHT22;38556;47.068;15.408;2022-11-18T03:14:44;7.40;99.90
1996;DHT22;38556;47.068;15.408;2022-11-18T03:17:20;7.50;99.90
1996;DHT22;38556;47.068;15.408;2022-11-18T03:19:59;10.90;99.90
1996;DHT22;38556;47.068;15.408;2022-11-18T03:22:32;7.60;99.90
1996;DHT22;38556;47.068;15.408;2022-11-18T03:25:05;7.60;99.90
1996;DHT22;38556;47.068;15.408;2022-11-18T03:27:35;7.70;99.90
1996;DHT22;38556;47.068;15.408;2022-11-18T03:30:06;7.70;99.90
1996;DHT22;38556;47.068;15.408;2022-11-18T03:32:40;7.70;99.90
1996;DHT22;38556;47.068;15.408;2022-11-18T03:35:11;7.70;99.90
1996;DHT22;38556;47.068;15.408;2022-11-18T03:37:41;7.20;99.90
1996;DHT22;38556;47.068;15.408;2022-11-18T03:40:15;7.20;99.90
1996;DHT22;38556;47.068;15.408;2022-11-18T03:42:47;7.00;99.90
1996;DHT22;38556;47.068;15.408;2022-11-18T03:45:18;6.60;99.90
1996;DHT22;38556;47.068;15.408;2022-11-18T03:47:53;6.60;99.90
1996;DHT22;38556;47.068;15.408;2022-11-18T03:50:25;6.70;99.90
1996;DHT22;38556;47.068;15.408;2022-11-18T03:52:54;6.80;99.90
1996;DHT22;38556;47.068;15.408;2022-11-18T03:55:24;6.70;99.90
1996;DHT22;38556;47.068;15.408;2022-11-18T03:57:57;6.90;99.90
1996;DHT22;38556;47.068;15.408;2022-11-18T04:00:31;7.00;99.90
1996;DHT22;38556;47.068;15.408;2022-11-18T04:03:00;7.00;99.90
1996;DHT22;38556;47.068;15.408;2022-11-18T04:05:31;7.10;99.90
1996;DHT22;38556;47.068;15.408;2022-11-18T04:08:00;7.00;99.90
1996;DHT22;38556;47.068;15.408;2022-11-18T04:10:30;7.00;99.90
1996;DHT22;38556;47.068;15.408;2022-11-18T04:13:03;7.00;99.90
1996;DHT22;38556;47.068;15.408;2022-11-18T04:15:35;6.90;99.90
1996;DHT22;38556;47.068;15.408;2022-11-18T04:18:03;6.70;99.90
1996;DHT22;38556;47.068;15.408;2022-11-18T04:20:31;6.70;99.90
1996;DHT22;38556;47.068;15.408;2022-11-18T04:22:59;6.70;99.90
1996;DHT22;38556;47.068;15.408;2022-11-18T04:25:26;6.60;99.90
1996;DHT22;38556;47.068;15.408;2022-11-18T04:27:53;6.60;99.90
1996;DHT22;38556;47.068;15.408;2022-11-18T04:30:21;6.60;99.90
1996;DHT22;38556;47.068;15.408;2022-11-18T04:32:48;6.70;99.90
1996;DHT22;38556;47.068;15.408;2022-11-18T04:35:17;6.70;99.90
1996;DHT22;38556;47.068;15.408;2022-11-18T04:37:44;6.90;99.90
1996;DHT22;38556;47.068;15.408;2022-11-18T04:40:12;7.00;99.90
1996;DHT22;38556;47.068;15.408;2022-11-18T04:42:39;7.10;99.90
1996;DHT22;38556;47.068;15.408;2022-11-18T04:45:08;7.10;99.90
1996;DHT22;38556;47.068;15.408;2022-11-18T04:47:36;7.00;99.90
1996;DHT22;38556;47.068;15.408;2022-11-18T04:50:04;6.70;99.90
1996;DHT22;38556;47.068;15.408;2022-11-18T04:52:32;6.60;99.90
1996;DHT22;38556;47.068;15.408;2022-11-18T04:55:00;6.30;99.90
1996;DHT22;38556;47.068;15.408;2022-11-18T04:57:27;6.30;99.90
1996;DHT22;38556;47.068;15.408;2022-11-18T04:59:55;6.30;99.90
1996;DHT22;38556;47.068;15.408;2022-11-18T05:02:22;6.50;99.90
1996;DHT22;38556;47.068;15.408;2022-11-18T05:04:49;6.80;99.90
1996;DHT22;38556;47.068;15.408;2022-11-18T05:07:17;6.70;99.90
1996;DHT22;38556;47.068;15.408;2022-11-18T05:09:45;6.80;99.90
1996;DHT22;38556;47.068;15.408;2022-11-18T05:12:13;6.90;99.90
1996;DHT22;38556;47.068;15.408;2022-11-18T05:14:58;6.90;99.90
1996;DHT22;38556;47.068;15.408;2022-11-18T05:17:25;6.70;99.90
1996;DHT22;38556;47.068;15.408;2022-11-18T05:19:52;6.70;99.90
1996;DHT22;38556;47.068;15.408;2022-11-18T05:22:20;6.70;99.90
1996;DHT22;38556;47.068;15.408;2022-11-18T05:24:48;6.80;99.90
1996;DHT22;38556;47.068;15.408;2022-11-18T05:27:16;6.80;99.90
1996;DHT22;38556;47.068;15.408;2022-11-18T05:29:43;6.80;99.90
1996;DHT22;38556;47.068;15.408;2022-11-18T05:32:10;6.90;99.90
1996;DHT22;38556;47.068;15.408;2022-11-18T05:34:38;7.00;99.90
1996;DHT22;38556;47.068;15.408;2022-11-18T05:37:06;7.00;99.90
1996;DHT22;38556;47.068;15.408;2022-11-18T05:39:33;7.10;99.90
1996;DHT22;38556;47.068;15.408;2022-11-18T05:42:01;7.10;99.90
1996;DHT22;38556;47.068;15.408;2022-11-18T05:44:47;7.20;99.90
1996;DHT22;38556;47.068;15.408;2022-11-18T05:47:15;7.20;99.90
1996;DHT22;38556;47.068;15.408;2022-11-18T05:49:42;7.30;99.90
1996;DHT22;38556;47.068;15.408;2022-11-18T05:52:10;7.30;99.90
1996;DHT22;38556;47.068;15.408;2022-11-18T05:54:38;9.10;99.90
1996;DHT22;38556;47.068;15.408;2022-11-18T05:57:06;7.40;99.90
1996;DHT22;38556;47.068;15.408;2022-11-18T05:59:34;7.40;99.90
1996;DHT22;38556;47.068;15.408;2022-11-18T06:02:03;7.40;99.90
1996;DHT22;38556;47.068;15.408;2022-11-18T06:04:36;7.40;99.90
1996;DHT22;38556;47.068;15.408;2022-11-18T06:07:06;7.30;99.90
1996;DHT22;38556;47.068;15.408;2022-11-18T06:09:38;7.30;99.90
1996;DHT22;38556;47.068;15.408;2022-11-18T06:12:13;7.20;99.90
1996;DHT22;38556;47.068;15.408;2022-11-18T06:14:45;7.20;99.90
1996;DHT22;38556;47.068;15.408;2022-11-18T06:17:18;7.10;99.90
1996;DHT22;38556;47.068;15.408;2022-11-18T06:19:48;7.10;99.90
1996;DHT22;38556;47.068;15.408;2022-11-18T06:22:15;7.20;99.90
1996;DHT22;38556;47.068;15.408;2022-11-18T06:24:43;7.20;99.90
1996;DHT22;38556;47.068;15.408;2022-11-18T06:27:13;7.30;99.90
1996;DHT22;38556;47.068;15.408;2022-11-18T06:29:41;7.40;99.90
1996;DHT22;38556;47.068;15.408;2022-11-18T06:32:08;7.40;99.90
1996;DHT22;38556;47.068;15.408;2022-11-18T06:34:36;7.40;99.90
1996;DHT22;38556;47.068;15.408;2022-11-18T06:37:11;7.30;99.90
1996;DHT22;38556;47.068;15.408;2022-11-18T06:39:39;7.20;99.90
1996;DHT22;38556;47.068;15.408;2022-11-18T06:42:06;7.20;99.90
1996;DHT22;38556;47.068;15.408;2022-11-18T06:44:34;7.20;99.90
1996;DHT22;38556;47.068;15.408;2022-11-18T06:47:02;7.30;99.90
1996;DHT22;38556;47.068;15.408;2022-11-18T06:49:30;7.30;99.90
1996;DHT22;38556;47.068;15.408;2022-11-18T06:51:57;7.40;99.90
1996;DHT22;38556;47.068;15.408;2022-11-18T06:54:24;7.50;99.90
1996;DHT22;38556;47.068;15.408;2022-11-18T06:56:51;7.30;99.90
1996;DHT22;38556;47.068;15.408;2022-11-18T06:59:19;7.20;99.90
1996;DHT22;38556;47.068;15.408;2022-11-18T07:01:50;7.30;99.90
1996;DHT22;38556;47.068;15.408;2022-11-18T07:04:18;7.40;99.90
1996;DHT22;38556;47.068;15.408;2022-11-18T07:06:45;7.50;99.90
1996;DHT22;38556;47.068;15.408;2022-11-18T07:09:13;7.50;99.90
1996;DHT22;38556;47.068;15.408;2022-11-18T07:11:40;7.60;99.90
1996;DHT22;38556;47.068;15.408;2022-11-18T07:14:08;7.60;99.90
1996;DHT22;38556;47.068;15.408;2022-11-18T07:16:36;7.60;99.90
1996;DHT22;38556;47.068;15.408;2022-11-18T07:19:09;7.50;99.90
1996;DHT22;38556;47.068;15.408;2022-11-18T07:21:37;7.40;99.90
1996;DHT22;38556;47.068;15.408;2022-11-18T07:24:05;7.10;99.90
1996;DHT22;38556;47.068;15.408;2022-11-18T07:26:33;6.90;99.90
1996;DHT22;38556;47.068;15.408;2022-11-18T07:29:01;6.80;99.90
1996;DHT22;38556;47.068;15.408;2022-11-18T07:31:28;6.70;99.90
1996;DHT22;38556;47.068;15.408;2022-11-18T07:33:55;6.60;99.90
1996;DHT22;38556;47.068;15.408;2022-11-18T07:36:26;6.50;99.90
1996;DHT22;38556;47.068;15.408;2022-11-18T07:38:54;6.50;99.90
1996;DHT22;38556;47.068;15.408;2022-11-18T07:41:23;6.50;99.90
1996;DHT22;38556;47.068;15.408;2022-11-18T07:43:53;6.60;99.90
1996;DHT22;38556;47.068;15.408;2022-11-18T07:46:22;6.70;99.90
1996;DHT22;38556;47.068;15.408;2022-11-18T07:48:52;6.80;99.90
1996;DHT22;38556;47.068;15.408;2022-11-18T07:51:21;6.80;99.90
1996;DHT22;38556;47.068;15.408;2022-11-18T07:53:50;6.60;99.90
1996;DHT22;38556;47.068;15.408;2022-11-18T07:56:18;6.80;99.90
1996;DHT22;38556;47.068;15.408;2022-11-18T07:58:46;6.80;99.90
1996;DHT22;38556;47.068;15.408;2022-11-18T08:01:15;6.70;99.90
1996;DHT22;38556;47.068;15.408;2022-11-18T08:03:43;6.70;99.90
1996;DHT22;38556;47.068;15.408;2022-11-18T08:06:12;6.60;99.90
1996;DHT22;38556;47.068;15.408;2022-11-18T08:08:40;6.70;99.90
1996;DHT22;38556;47.068;15.408;2022-11-18T08:11:11;6.60;99.90
1996;DHT22;38556;47.068;15.408;2022-11-18T08:13:38;6.50;99.90
1996;DHT22;38556;47.068;15.408;2022-11-18T08:16:12;6.70;99.90
1996;DHT22;38556;47.068;15.408;2022-11-18T08:18:40;6.80;99.90
1996;DHT22;38556;47.068;15.408;2022-11-18T08:21:07;6.80;99.90
1996;DHT22;38556;47.068;15.408;2022-11-18T08:23:35;6.80;99.90
1996;DHT22;38556;47.068;15.408;2022-11-18T08:26:10;6.70;99.90
1996;DHT22;38556;47.068;15.408;2022-11-18T08:28:39;6.80;99.90
1996;DHT22;38556;47.068;15.408;2022-11-18T08:31:09;6.90;99.90
1996;DHT22;38556;47.068;15.408;2022-11-18T08:33:36;7.10;99.90
1996;DHT22;38556;47.068;15.408;2022-11-18T08:36:06;7.40;99.90
1996;DHT22;38556;47.068;15.408;2022-11-18T08:38:33;7.40;99.90
1996;DHT22;38556;47.068;15.408;2022-11-18T08:41:00;7.50;99.90
1996;DHT22;38556;47.068;15.408;2022-11-18T08:43:31;7.70;99.90
1996;DHT22;38556;47.068;15.408;2022-11-18T08:46:00;7.40;99.90
1996;DHT22;38556;47.068;15.408;2022-11-18T08:48:27;7.40;99.90
1996;DHT22;38556;47.068;15.408;2022-11-18T08:50:56;7.50;99.90
1996;DHT22;38556;47.068;15.408;2022-11-18T08:53:24;7.40;99.90
1996;DHT22;38556;47.068;15.408;2022-11-18T08:55:54;7.60;99.90
1996;DHT22;38556;47.068;15.408;2022-11-18T08:58:21;7.70;99.90
1996;DHT22;38556;47.068;15.408;2022-11-18T09:00:50;7.80;99.90
1996;DHT22;38556;47.068;15.408;2022-11-18T09:03:18;7.90;99.90
1996;DHT22;38556;47.068;15.408;2022-11-18T09:05:45;7.60;99.90
1996;DHT22;38556;47.068;15.408;2022-11-18T09:08:13;7.70;99.90
1996;DHT22;38556;47.068;15.408;2022-11-18T09:10:40;7.50;99.90
1996;DHT22;38556;47.068;15.408;2022-11-18T09:13:08;7.50;99.90
1996;DHT22;38556;47.068;15.408;2022-11-18T09:15:35;7.50;99.90
1996;DHT22;38556;47.068;15.408;2022-11-18T09:18:04;7.40;99.90
1996;DHT22;38556;47.068;15.408;2022-11-18T09:20:31;7.50;99.90
1996;DHT22;38556;47.068;15.408;2022-11-18T09:22:58;7.60;99.90
1996;DHT22;38556;47.068;15.408;2022-11-18T09:25:25;7.60;99.90
1996;DHT22;38556;47.068;15.408;2022-11-18T09:27:53;7.80;99.90
1996;DHT22;38556;47.068;15.408;2022-11-18T09:30:21;7.70;99.90
1996;DHT22;38556;47.068;15.408;2022-11-18T09:32:49;7.80;99.90
1996;DHT22;38556;47.068;15.408;2022-11-18T09:35:17;7.80;99.90
1996;DHT22;38556;47.068;15.408;2022-11-18T09:37:44;8.00;99.90
1996;DHT22;38556;47.068;15.408;2022-11-18T09:40:15;8.10;99.90
1996;DHT22;38556;47.068;15.408;2022-11-18T09:42:51;7.90;99.90
1996;DHT22;38556;47.068;15.408;2022-11-18T09:45:24;7.90;99.90
1996;DHT22;38556;47.068;15.408;2022-11-18T09:47:56;7.90;99.90
1996;DHT22;38556;47.068;15.408;2022-11-18T09:50:26;8.00;99.90
1996;DHT22;38556;47.068;15.408;2022-11-18T09:53:03;8.00;99.90
1996;DHT22;38556;47.068;15.408;2022-11-18T09:55:35;8.10;99.90
1996;DHT22;38556;47.068;15.408;2022-11-18T09:58:04;8.30;99.90
1996;DHT22;38556;47.068;15.408;2022-11-18T10:00:33;8.30;99.90
1996;DHT22;38556;47.068;15.408;2022-11-18T10:03:02;8.40;99.90
1996;DHT22;38556;47.068;15.408;2022-11-18T10:05:38;8.40;99.90
1996;DHT22;38556;47.068;15.408;2022-11-18T10:08:18;8.50;99.90
1996;DHT22;38556;47.068;15.408;2022-11-18T10:10:53;8.50;99.90
1996;DHT22;38556;47.068;15.408;2022-11-18T10:13:31;8.50;99.90
1996;DHT22;38556;47.068;15.408;2022-11-18T10:16:12;8.40;99.90
1996;DHT22;38556;47.068;15.408;2022-11-18T10:18:49;8.50;99.90
1996;DHT22;38556;47.068;15.408;2022-11-18T10:21:32;8.50;99.90
1996;DHT22;38556;47.068;15.408;2022-11-18T10:24:09;8.60;99.90
1996;DHT22;38556;47.068;15.408;2022-11-18T10:26:39;8.60;99.90
1996;DHT22;38556;47.068;15.408;2022-11-18T10:29:08;8.50;99.90
1996;DHT22;38556;47.068;15.408;2022-11-18T10:31:36;8.50;99.90
1996;DHT22;38556;47.068;15.408;2022-11-18T10:34:04;8.50;99.90
1996;DHT22;38556;47.068;15.408;2022-11-18T10:36:33;8.50;99.90
1996;DHT22;38556;47.068;15.408;2022-11-18T10:39:08;8.50;99.90
1996;DHT22;38556;47.068;15.408;2022-11-18T10:41:42;8.50;99.90
1996;DHT22;38556;47.068;15.408;2022-11-18T10:44:29;8.60;99.90
1996;DHT22;38556;47.068;15.408;2022-11-18T10:47:25;8.40;99.90
1996;DHT22;38556;47.068;15.408;2022-11-18T10:49:53;8.40;99.90
1996;DHT22;38556;47.068;15.408;2022-11-18T10:52:23;8.50;99.90
1996;DHT22;38556;47.068;15.408;2022-11-18T10:55:19;8.40;99.90
1996;DHT22;38556;47.068;15.408;2022-11-18T10:57:51;8.50;99.90
1996;DHT22;38556;47.068;15.408;2022-11-18T11:00:43;8.30;99.90
1996;DHT22;38556;47.068;15.408;2022-11-18T11:03:33;8.40;99.90
1996;DHT22;38556;47.068;15.408;2022-11-18T11:09:09;8.60;99.90
1996;DHT22;38556;47.068;15.408;2022-11-18T11:11:38;8.60;99.90
1996;DHT22;38556;47.068;15.408;2022-11-18T11:16:48;8.60;99.90
1996;DHT22;38556;47.068;15.408;2022-11-18T11:19:20;8.90;99.90
1996;DHT22;38556;47.068;15.408;2022-11-18T11:21:49;9.00;99.90
1996;DHT22;38556;47.068;15.408;2022-11-18T11:24:19;8.90;99.90
1996;DHT22;38556;47.068;15.408;2022-11-18T11:26:58;8.40;99.90
1996;DHT22;38556;47.068;15.408;2022-11-18T11:29:44;8.90;99.90
1996;DHT22;38556;47.068;15.408;2022-11-18T11:32:24;9.10;99.90
1996;DHT22;38556;47.068;15.408;2022-11-18T11:35:00;9.10;99.90
1996;DHT22;38556;47.068;15.408;2022-11-18T11:37:36;9.10;99.90
1996;DHT22;38556;47.068;15.408;2022-11-18T11:40:19;9.20;99.90
1996;DHT22;38556;47.068;15.408;2022-11-18T11:43:00;9.30;99.90
1996;DHT22;38556;47.068;15.408;2022-11-18T11:45:36;9.20;99.90
1996;DHT22;38556;47.068;15.408;2022-11-18T11:48:27;9.20;99.90
1996;DHT22;38556;47.068;15.408;2022-11-18T11:50:59;9.10;99.90
1996;DHT22;38556;47.068;15.408;2022-11-18T11:53:50;9.10;99.90
1996;DHT22;38556;47.068;15.408;2022-11-18T11:56:24;8.90;99.90
1996;DHT22;38556;47.068;15.408;2022-11-18T11:59:10;9.00;99.90
1996;DHT22;38556;47.068;15.408;2022-11-18T12:01:51;8.90;99.90
1996;DHT22;38556;47.068;15.408;2022-11-18T12:04:31;10.50;99.90
1996;DHT22;38556;47.068;15.408;2022-11-18T12:06:59;9.00;99.90
1996;DHT22;38556;47.068;15.408;2022-11-18T12:09:38;9.10;99.90
1996;DHT22;38556;47.068;15.408;2022-11-18T12:12:21;9.10;99.90
1996;DHT22;38556;47.068;15.408;2022-11-18T12:15:15;9.10;99.90
1996;DHT22;38556;47.068;15.408;2022-11-18T12:17:51;9.20;99.90
1996;DHT22;38556;47.068;15.408;2022-11-18T12:20:39;9.20;99.90
1996;DHT22;38556;47.068;15.408;2022-11-18T12:23:11;9.20;99.90
1996;DHT22;38556;47.068;15.408;2022-11-18T12:26:01;9.30;99.90
1996;DHT22;38556;47.068;15.408;2022-11-18T12:28:33;9.40;99.90
1996;DHT22;38556;47.068;15.408;2022-11-18T12:31:26;9.50;99.90
1996;DHT22;38556;47.068;15.408;2022-11-18T12:34:00;9.50;99.90
1996;DHT22;38556;47.068;15.408;2022-11-18T12:36:30;9.70;99.90
1996;DHT22;38556;47.068;15.408;2022-11-18T12:38:58;9.60;99.90
1996;DHT22;38556;47.068;15.408;2022-11-18T12:41:53;9.60;99.90
1996;DHT22;38556;47.068;15.408;2022-11-18T12:44:41;9.70;99.90
1996;DHT22;38556;47.068;15.408;2022-11-18T12:47:10;9.80;99.90
1996;DHT22;38556;47.068;15.408;2022-11-18T12:50:12;9.80;99.90
1996;DHT22;38556;47.068;15.408;2022-11-18T12:55:18;10.00;99.90
1996;DHT22;38556;47.068;15.408;2022-11-18T12:57:47;10.10;99.90
1996;DHT22;38556;47.068;15.408;2022-11-18T13:00:18;10.10;99.90
1996;DHT22;38556;47.068;15.408;2022-11-18T13:02:55;10.20;99.90
1996;DHT22;38556;47.068;15.408;2022-11-18T13:05:24;10.30;99.90
1996;DHT22;38556;47.068;15.408;2022-11-18T13:07:55;10.30;99.90
1996;DHT22;38556;47.068;15.408;2022-11-18T13:10:47;10.30;99.90
1996;DHT22;38556;47.068;15.408;2022-11-18T13:13:24;10.40;99.90
1996;DHT22;38556;47.068;15.408;2022-11-18T13:15:54;10.40;99.90
1996;DHT22;38556;47.068;15.408;2022-11-18T13:18:49;10.30;99.90
1996;DHT22;38556;47.068;15.408;2022-11-18T13:21:22;10.40;99.90
1996;DHT22;38556;47.068;15.408;2022-11-18T13:24:10;10.30;99.90
1996;DHT22;38556;47.068;15.408;2022-11-18T13:26:40;10.20;99.90
1996;DHT22;38556;47.068;15.408;2022-11-18T13:29:24;10.30;99.90
1996;DHT22;38556;47.068;15.408;2022-11-18T13:32:01;10.10;99.90
1996;DHT22;38556;47.068;15.408;2022-11-18T13:34:31;9.90;99.90
1996;DHT22;38556;47.068;15.408;2022-11-18T13:37:15;9.80;99.90
1996;DHT22;38556;47.068;15.408;2022-11-18T13:39:44;9.70;99.90
1996;DHT22;38556;47.068;15.408;2022-11-18T13:42:17;9.60;99.90
1996;DHT22;38556;47.068;15.408;2022-11-18T13:44:52;9.50;99.90
1996;DHT22;38556;47.068;15.408;2022-11-18T13:47:27;9.50;99.90
1996;DHT22;38556;47.068;15.408;2022-11-18T13:50:03;9.50;99.90
1996;DHT22;38556;47.068;15.408;2022-11-18T13:52:35;9.50;99.90
1996;DHT22;38556;47.068;15.408;2022-11-18T13:55:11;9.50;99.90
1996;DHT22;38556;47.068;15.408;2022-11-18T13:57:45;9.40;99.90
1996;DHT22;38556;47.068;15.408;2022-11-18T14:00:20;9.40;99.90
1996;DHT22;38556;47.068;15.408;2022-11-18T14:02:54;9.40;99.90
1996;DHT22;38556;47.068;15.408;2022-11-18T14:05:23;9.40;99.90
1996;DHT22;38556;47.068;15.408;2022-11-18T14:08:02;9.50;99.90
1996;DHT22;38556;47.068;15.408;2022-11-18T14:10:38;9.60;99.90
1996;DHT22;38556;47.068;15.408;2022-11-18T14:13:16;9.70;99.90
1996;DHT22;38556;47.068;15.408;2022-11-18T14:15:44;9.70;99.90
1996;DHT22;38556;47.068;15.408;2022-11-18T14:18:25;9.80;99.90
1996;DHT22;38556;47.068;15.408;2022-11-18T14:20:54;9.90;99.90
1996;DHT22;38556;47.068;15.408;2022-11-18T14:23:26;9.90;99.90
1996;DHT22;38556;47.068;15.408;2022-11-18T14:25:55;9.90;99.90
1996;DHT22;38556;47.068;15.408;2022-11-18T14:28:25;9.90;99.90
1996;DHT22;38556;47.068;15.408;2022-11-18T14:31:06;10.00;99.90
1996;DHT22;38556;47.068;15.408;2022-11-18T14:34:10;10.00;99.90
1996;DHT22;38556;47.068;15.408;2022-11-18T14:36:41;10.00;99.90
1996;DHT22;38556;47.068;15.408;2022-11-18T14:39:12;9.90;99.90
1996;DHT22;38556;47.068;15.408;2022-11-18T14:41:40;9.70;99.90
1996;DHT22;38556;47.068;15.408;2022-11-18T14:44:13;9.70;99.90
1996;DHT22;38556;47.068;15.408;2022-11-18T14:46:44;9.60;99.90
1996;DHT22;38556;47.068;15.408;2022-11-18T14:49:15;9.50;99.90
1996;DHT22;38556;47.068;15.408;2022-11-18T14:51:44;9.40;99.90
1996;DHT22;38556;47.068;15.408;2022-11-18T14:54:12;9.40;99.90
1996;DHT22;38556;47.068;15.408;2022-11-18T14:56:41;9.50;99.90
1996;DHT22;38556;47.068;15.408;2022-11-18T14:59:11;9.60;99.90
1996;DHT22;38556;47.068;15.408;2022-11-18T15:01:39;9.70;99.90
1996;DHT22;38556;47.068;15.408;2022-11-18T15:04:07;9.70;99.90
1996;DHT22;38556;47.068;15.408;2022-11-18T15:06:36;9.60;99.90
1996;DHT22;38556;47.068;15.408;2022-11-18T15:09:05;9.60;99.90
1996;DHT22;38556;47.068;15.408;2022-11-18T15:11:33;9.40;99.90
1996;DHT22;38556;47.068;15.408;2022-11-18T15:14:00;9.30;99.90
1996;DHT22;38556;47.068;15.408;2022-11-18T15:16:29;9.40;99.90
1996;DHT22;38556;47.068;15.408;2022-11-18T15:18:58;9.40;99.90
1996;DHT22;38556;47.068;15.408;2022-11-18T15:21:26;9.40;99.90
1996;DHT22;38556;47.068;15.408;2022-11-18T15:23:55;9.40;99.90
1996;DHT22;38556;47.068;15.408;2022-11-18T15:26:24;9.60;99.90
1996;DHT22;38556;47.068;15.408;2022-11-18T15:28:53;9.60;99.90
1996;DHT22;38556;47.068;15.408;2022-11-18T15:31:21;9.70;99.90
1996;DHT22;38556;47.068;15.408;2022-11-18T15:33:49;9.70;99.90
1996;DHT22;38556;47.068;15.408;2022-11-18T15:36:19;9.60;99.90
1996;DHT22;38556;47.068;15.408;2022-11-18T15:38:47;9.60;99.90
1996;DHT22;38556;47.068;15.408;2022-11-18T15:41:17;9.70;99.90
1996;DHT22;38556;47.068;15.408;2022-11-18T15:43:46;9.70;99.90
1996;DHT22;38556;47.068;15.408;2022-11-18T15:46:14;9.70;99.90
1996;DHT22;38556;47.068;15.408;2022-11-18T15:48:41;9.50;99.90
1996;DHT22;38556;47.068;15.408;2022-11-18T15:51:09;9.50;99.90
1996;DHT22;38556;47.068;15.408;2022-11-18T15:53:37;9.60;99.90
1996;DHT22;38556;47.068;15.408;2022-11-18T15:56:26;9.70;99.90
1996;DHT22;38556;47.068;15.408;2022-11-18T15:58:54;9.70;99.90
1996;DHT22;38556;47.068;15.408;2022-11-18T16:01:22;9.70;99.90
1996;DHT22;38556;47.068;15.408;2022-11-18T16:03:50;9.70;99.90
1996;DHT22;38556;47.068;15.408;2022-11-18T16:06:17;9.70;99.90
1996;DHT22;38556;47.068;15.408;2022-11-18T16:08:45;9.70;99.90
1996;DHT22;38556;47.068;15.408;2022-11-18T16:11:14;9.70;99.90
1996;DHT22;38556;47.068;15.408;2022-11-18T16:14:01;9.70;99.90
1996;DHT22;38556;47.068;15.408;2022-11-18T16:16:29;9.70;99.90
1996;DHT22;38556;47.068;15.408;2022-11-18T16:18:57;9.70;99.90
1996;DHT22;38556;47.068;15.408;2022-11-18T16:21:26;9.60;99.90
1996;DHT22;38556;47.068;15.408;2022-11-18T16:23:54;9.60;99.90
1996;DHT22;38556;47.068;15.408;2022-11-18T16:26:23;9.50;99.90
1996;DHT22;38556;47.068;15.408;2022-11-18T16:28:51;9.50;99.90